This is the latest recevied weather packets stored in our database for station/object K0RGI. If no packets are shown the sender has not sent any weather packets the latest 10 day(s).
| Time | Temp. | Humidity | Pressure | Rain* | Wind** | Luminosity | Snow |
|---|---|---|---|---|---|---|---|
| 1777092709 | 17.22° C | 87% | 1012.3 hPa | 0 mm | - | 0 W/m² | - |
| 1777092107 | 17.22° C | 86% | 1012.4 hPa | 0 mm | - | 0 W/m² | - |
| 1777091505 | 17.22° C | 88% | 1012.6 hPa | 0 mm | - | 0 W/m² | - |
| 1777090901 | 17.22° C | 88% | 1012.5 hPa | 0 mm | - | 0 W/m² | - |
| 1777090300 | 17.22° C | 88% | 1012.3 hPa | 0 mm | - | 0 W/m² | - |
| 1777089698 | 17.22° C | 88% | 1012.3 hPa | 0 mm | - | 0 W/m² | - |
| 1777089095 | 17.78° C | 88% | 1012.3 hPa | 0 mm | - | 0 W/m² | - |
| 1777088492 | 17.78° C | 88% | 1012.2 hPa | 0 mm | - | 0 W/m² | - |
| 1777087886 | 17.78° C | 87% | 1012.3 hPa | 0 mm | - | 0 W/m² | - |
| 1777087286 | 17.78° C | 87% | 1012.5 hPa | 0 mm | - | 0 W/m² | - |
| 1777086682 | 17.78° C | 86% | 1012.3 hPa | 0 mm | - | 0 W/m² | - |
| 1777086079 | 18.33° C | 85% | 1012.1 hPa | 0 mm | - | 0 W/m² | - |
| 1777085477 | 18.33° C | 84% | 1012.4 hPa | 0 mm | - | 0 W/m² | - |
| 1777084874 | 18.89° C | 81% | 1012.1 hPa | 0 mm | - | 0 W/m² | - |
| 1777084272 | 18.89° C | 79% | 1012.3 hPa | 0 mm | - | 0 W/m² | - |
| 1777083669 | 19.44° C | 74% | 1012.4 hPa | 0 mm | - | 0 W/m² | - |
| 1777083068 | 20° C | 70% | 1012.4 hPa | 0 mm | - | 0 W/m² | - |
| 1777082464 | 20° C | 72% | 1012.4 hPa | 0 mm | - | 0 W/m² | - |
| 1777081860 | 20° C | 69% | 1012.3 hPa | 0 mm | - | 0 W/m² | - |
| 1777081258 | 20° C | 75% | 1012.2 hPa | 0 mm | - | 0 W/m² | - |
| 1777080657 | 21.11° C | 69% | 1011.9 hPa | 0 mm | - | 0 W/m² | - |
| 1777080053 | 21.67° C | 64% | 1011.9 hPa | 0 mm | - | 0 W/m² | - |
| 1777079448 | 21.67° C | 64% | 1011.7 hPa | 0 mm | - | 0 W/m² | - |
| 1777078846 | 21.67° C | 65% | 1011.6 hPa | 0 mm | - | 0 W/m² | - |
| 1777078245 | 21.67° C | 65% | 1011.6 hPa | 0 mm | - | 0 W/m² | - |
* Rain latest hour (hover to see other rain measurements)
** Current wind speed in m/s (hover to see current wind gust speed)